Time;durP1;ratioP1;P1;durP2;ratioP2;P2;SDS_P1;SDS_P2;PMS_P1;PMS_P2;Temp;Humidity;BMP_temperature;BMP_pressure;BME280_temperature;BME280_humidity;BME280_pressure;Samples;Min_cycle;Max_cycle;Signal;HPM_P1;HPM_P2
2022/08/21 00:00:32;;;;;;;2.72;0.80;;;17.50;74.50;;;;;;4714661;30;20072;-79
2022/08/21 00:03:05;;;;;;;2.53;0.80;;;17.50;74.50;;;;;;4697536;30;20072;-79
2022/08/21 00:05:37;;;;;;;1.23;0.50;;;17.40;74.50;;;;;;4711848;30;20049;-79
2022/08/21 00:08:04;;;;;;;2.58;0.70;;;17.40;74.60;;;;;;4729191;30;20070;-78
2022/08/21 00:10:32;;;;;;;1.23;0.60;;;17.40;74.70;;;;;;4714675;30;20087;-79
2022/08/21 00:13:01;;;;;;;1.88;0.60;;;17.40;74.70;;;;;;4698929;30;20057;-79
2022/08/21 00:15:30;;;;;;;0.98;0.50;;;17.40;74.80;;;;;;4702183;30;20167;-79
2022/08/21 00:17:58;;;;;;;1.58;0.50;;;17.40;74.90;;;;;;4716174;30;20045;-78
2022/08/21 00:20:26;;;;;;;2.08;0.63;;;17.40;75.00;;;;;;4717968;30;20053;-79
2022/08/21 00:22:53;;;;;;;1.63;0.60;;;17.40;75.70;;;;;;4703078;30;20136;-79
2022/08/21 00:25:23;;;;;;;1.73;0.70;;;17.40;75.10;;;;;;4718091;30;20076;-79
2022/08/21 00:27:52;;;;;;;1.83;0.80;;;17.30;75.10;;;;;;4703166;30;20515;-79
2022/08/21 00:30:22;;;;;;;1.17;0.50;;;17.30;75.30;;;;;;4689073;30;20136;-79
2022/08/21 00:32:50;;;;;;;1.52;0.60;;;17.30;75.40;;;;;;4715260;30;20057;-79
2022/08/21 00:35:21;;;;;;;1.98;0.68;;;17.20;75.40;;;;;;4694987;30;20130;-79
2022/08/21 00:37:48;;;;;;;1.40;0.70;;;17.20;75.50;;;;;;4722284;30;20061;-78
2022/08/21 00:40:19;;;;;;;2.30;0.70;;;17.20;75.60;;;;;;4695598;30;20053;-79
2022/08/21 00:42:46;;;;;;;1.75;0.60;;;17.20;75.70;;;;;;4728657;30;20484;-79
2022/08/21 00:45:23;;;;;;;3.00;0.70;;;17.10;75.80;;;;;;4690726;30;20436;-79
2022/08/21 00:47:53;;;;;;;2.17;0.68;;;17.10;75.80;;;;;;4703207;30;20056;-79
2022/08/21 00:50:21;;;;;;;1.48;0.80;;;17.10;75.90;;;;;;4714498;30;20124;-78
2022/08/21 00:52:52;;;;;;;2.45;0.80;;;17.10;75.90;;;;;;4714307;30;20041;-78
2022/08/21 00:55:21;;;;;;;1.92;0.85;;;17.10;76.00;;;;;;4717354;30;20072;-79
2022/08/21 00:57:53;;;;;;;2.95;0.90;;;17.10;76.10;;;;;;4717205;30;20091;-79
2022/08/21 01:00:32;;;;;;;5.05;1.08;;;17.00;76.20;;;;;;4718338;30;20077;-79
2022/08/21 01:03:08;;;;;;;1.48;0.60;;;17.00;76.40;;;;;;4709018;30;20057;-79
2022/08/21 01:05:37;;;;;;;1.90;0.77;;;16.90;76.50;;;;;;4729030;30;20053;-79
2022/08/21 01:08:05;;;;;;;3.15;0.98;;;16.90;76.60;;;;;;4702494;30;20073;-79
2022/08/21 01:10:33;;;;;;;1.80;0.80;;;16.90;76.60;;;;;;4717062;30;20521;-79
2022/08/21 01:13:01;;;;;;;1.25;0.50;;;16.90;76.70;;;;;;4706083;30;20068;-79
2022/08/21 01:15:33;;;;;;;2.75;0.77;;;16.80;76.70;;;;;;4705011;30;20096;-79
2022/08/21 01:18:01;;;;;;;2.75;0.73;;;16.90;76.80;;;;;;4717806;30;20065;-79
2022/08/21 01:20:28;;;;;;;1.65;0.70;;;16.80;76.80;;;;;;4736485;30;20158;-79
2022/08/21 01:22:59;;;;;;;2.08;0.80;;;16.80;76.90;;;;;;4689675;30;20157;-79
2022/08/21 01:25:26;;;;;;;2.17;0.75;;;16.80;77.00;;;;;;4695992;30;20045;-79
2022/08/21 01:27:54;;;;;;;1.70;0.77;;;16.80;77.10;;;;;;4703716;30;20049;-79
2022/08/21 01:30:24;;;;;;;2.35;0.80;;;16.80;77.20;;;;;;4716698;30;20045;-79
2022/08/21 01:32:53;;;;;;;1.80;0.75;;;16.70;77.20;;;;;;4714128;30;20083;-79
2022/08/21 01:35:21;;;;;;;2.25;0.80;;;16.70;77.30;;;;;;4715875;30;20045;-79
2022/08/21 01:37:48;;;;;;;2.55;1.00;;;16.70;77.40;;;;;;4715553;30;20057;-79
2022/08/21 01:40:17;;;;;;;3.55;1.10;;;16.70;77.40;;;;;;4729475;30;20106;-79
2022/08/21 01:42:47;;;;;;;1.92;0.82;;;16.70;77.50;;;;;;4715708;30;20103;-79
2022/08/21 01:45:15;;;;;;;2.15;0.82;;;16.70;78.20;;;;;;4691999;30;20474;-78
2022/08/21 01:47:44;;;;;;;2.35;0.95;;;16.60;77.60;;;;;;4702067;30;20197;-78
2022/08/21 01:50:16;;;;;;;2.30;1.00;;;16.60;77.70;;;;;;4701365;30;20045;-79
2022/08/21 01:52:43;;;;;;;;;;;16.60;77.80;;;;;;4717491;30;20061;-79
2022/08/21 01:55:12;;;;;;;3.00;0.90;;;16.50;77.70;;;;;;4717707;30;19969;-79
2022/08/21 01:57:39;;;;;;;1.95;0.95;;;16.50;77.90;;;;;;4701134;30;20578;-79
2022/08/21 02:00:10;;;;;;;2.53;0.88;;;16.50;77.90;;;;;;4701247;30;20077;-79
2022/08/21 02:02:40;;;;;;;2.85;0.90;;;16.50;78.00;;;;;;4714901;30;20056;-79
2022/08/21 02:05:09;;;;;;;3.30;1.08;;;16.50;78.00;;;;;;4709207;30;20068;-78
2022/08/21 02:07:44;;;;;;;3.15;1.10;;;16.50;78.10;;;;;;4701095;30;20043;-79
2022/08/21 02:10:15;;;;;;;3.15;1.10;;;16.40;78.00;;;;;;4709333;30;20061;-78
2022/08/21 02:12:46;;;;;;;3.17;1.10;;;16.40;78.10;;;;;;4715013;30;20049;-79
2022/08/21 02:15:13;;;;;;;3.13;0.93;;;16.40;78.20;;;;;;4715869;30;20107;-79
2022/08/21 02:17:49;;;;;;;2.22;0.90;;;16.40;78.30;;;;;;4686206;30;20131;-78
2022/08/21 02:20:20;;;;;;;1.63;0.70;;;16.40;78.30;;;;;;4714889;30;20057;-79
2022/08/21 02:22:47;;;;;;;2.90;0.93;;;16.30;78.30;;;;;;4729049;30;20064;-79
2022/08/21 02:25:14;;;;;;;2.42;1.20;;;16.30;78.40;;;;;;4693588;30;20504;-79
2022/08/21 02:27:44;;;;;;;3.33;1.15;;;16.30;78.50;;;;;;4688149;30;20110;-78
2022/08/21 02:30:15;;;;;;;2.42;0.80;;;16.30;78.50;;;;;;4714740;30;20049;-82
2022/08/21 02:32:43;;;;;;;3.15;1.05;;;16.30;78.60;;;;;;4709251;30;20533;-82
2022/08/21 02:35:11;;;;;;;1.85;0.90;;;16.30;78.60;;;;;;4645929;30;1134238;-82
2022/08/21 02:37:52;;;;;;;4.47;1.10;;;16.30;78.70;;;;;;4715520;30;20061;-82
2022/08/21 02:40:23;;;;;;;2.70;0.90;;;16.30;78.70;;;;;;4708601;30;20053;-82
2022/08/21 02:42:50;;;;;;;2.13;1.00;;;16.30;78.70;;;;;;4715596;30;20111;-82
2022/08/21 02:45:18;;;;;;;3.08;1.25;;;16.20;78.70;;;;;;4702937;30;20041;-82
2022/08/21 02:47:58;;;;;;;3.72;1.10;;;16.20;78.80;;;;;;4716974;30;20045;-82
2022/08/21 02:50:28;;;;;;;3.80;0.90;;;16.20;78.80;;;;;;4720151;30;20057;-82
2022/08/21 02:52:56;;;;;;;2.70;1.05;;;16.20;78.90;;;;;;4700989;30;20053;-82
2022/08/21 02:55:26;;;;;;;1.88;0.80;;;16.20;79.00;;;;;;4701331;30;20545;-82
2022/08/21 02:57:54;;;;;;;2.58;1.20;;;16.20;79.00;;;;;;4701043;30;20056;-82
2022/08/21 03:00:22;;;;;;;3.30;1.08;;;16.10;79.00;;;;;;4715734;30;20107;-82
2022/08/21 03:02:50;;;;;;;2.25;1.00;;;16.10;79.00;;;;;;4701188;30;20165;-82
2022/08/21 03:05:18;;;;;;;3.92;1.30;;;16.10;79.00;;;;;;4698324;30;20510;-82
2022/08/21 03:07:46;;;;;;;3.40;1.10;;;16.10;79.10;;;;;;4715510;30;20103;-83
2022/08/21 03:10:14;;;;;;;3.65;1.20;;;16.10;79.10;;;;;;4703924;30;20578;-82
2022/08/21 03:12:41;;;;;;;3.55;1.08;;;16.10;79.20;;;;;;4715764;30;20056;-82
2022/08/21 03:15:11;;;;;;;2.85;1.17;;;16.10;79.30;;;;;;4700839;30;20457;-82
2022/08/21 03:17:39;;;;;;;2.30;1.20;;;16.00;79.30;;;;;;4715187;30;20369;-82
2022/08/21 03:20:07;;;;;;;2.15;1.10;;;16.00;79.40;;;;;;4700698;30;20140;-82
2022/08/21 03:22:35;;;;;;;4.10;1.20;;;16.00;79.50;;;;;;4715097;30;20060;-82
2022/08/21 03:25:03;;;;;;;3.20;1.30;;;16.00;79.60;;;;;;4700511;30;20061;-81
2022/08/21 03:27:33;;;;;;;3.03;1.45;;;16.00;79.60;;;;;;4700721;30;20515;-81
2022/08/21 03:30:03;;;;;;;3.53;1.20;;;15.90;79.60;;;;;;4700733;30;20091;-82
2022/08/21 03:32:31;;;;;;;2.20;1.00;;;15.90;79.60;;;;;;4722613;30;20398;-82
2022/08/21 03:34:59;;;;;;;2.60;1.10;;;15.90;79.60;;;;;;4695059;30;20061;-82
2022/08/21 03:37:27;;;;;;;3.15;0.90;;;15.90;79.60;;;;;;4714927;30;20064;-82
2022/08/21 03:39:54;;;;;;;1.77;0.90;;;15.90;79.60;;;;;;4705985;30;20189;-82
2022/08/21 03:42:22;;;;;;;2.20;1.02;;;15.80;79.70;;;;;;4706809;30;20414;-82
2022/08/21 03:44:49;;;;;;;2.88;1.05;;;15.80;79.70;;;;;;4714812;30;20041;-82
2022/08/21 03:47:16;;;;;;;3.03;1.00;;;15.80;79.80;;;;;;4708041;30;20052;-82
2022/08/21 03:49:43;;;;;;;3.88;1.20;;;15.80;79.80;;;;;;4700478;30;20049;-82
2022/08/21 03:52:10;;;;;;;1.95;0.90;;;15.80;79.90;;;;;;4685711;30;20077;-82
2022/08/21 03:54:39;;;;;;;2.33;0.70;;;15.80;80.00;;;;;;4704084;30;20072;-82
2022/08/21 03:57:07;;;;;;;4.60;1.10;;;15.70;80.00;;;;;;4719673;30;20057;-82
2022/08/21 03:59:34;;;;;;;1.90;0.80;;;15.70;80.10;;;;;;4718300;30;20045;-79
2022/08/21 04:02:04;;;;;;;2.63;0.90;;;15.70;80.20;;;;;;4689483;30;20388;-79
2022/08/21 04:04:32;;;;;;;1.70;0.80;;;15.60;80.20;;;;;;4723357;30;20483;-79
2022/08/21 04:07:00;;;;;;;2.95;0.85;;;15.60;80.20;;;;;;4718156;30;20136;-79
2022/08/21 04:09:27;;;;;;;2.97;0.90;;;15.60;80.30;;;;;;4718155;30;20453;-79
2022/08/21 04:11:54;;;;;;;3.30;0.75;;;15.60;80.40;;;;;;4703888;30;20073;-79
2022/08/21 04:14:22;;;;;;;2.92;0.90;;;15.60;80.40;;;;;;4703556;30;20041;-79
2022/08/21 04:16:49;;;;;;;2.15;0.85;;;15.60;80.40;;;;;;4705248;30;20048;-80
2022/08/21 04:19:16;;;;;;;3.00;0.75;;;15.60;80.50;;;;;;4703761;30;20057;-79
2022/08/21 04:21:43;;;;;;;1.45;0.73;;;15.50;80.30;;;;;;4701769;30;20053;-79
2022/08/21 04:24:12;;;;;;;2.85;0.90;;;15.60;80.50;;;;;;4703711;30;20067;-79
2022/08/21 04:26:39;;;;;;;2.38;0.95;;;15.50;80.40;;;;;;4729104;30;20136;-80
2022/08/21 04:29:06;;;;;;;3.22;1.15;;;15.50;80.40;;;;;;4703440;30;20068;-79
2022/08/21 04:31:36;;;;;;;3.78;1.23;;;15.50;80.50;;;;;;4703610;30;20045;-80
2022/08/21 04:34:04;;;;;;;2.38;0.93;;;15.50;81.10;;;;;;4691327;30;20068;-79
2022/08/21 04:36:33;;;;;;;2.05;0.80;;;15.50;80.60;;;;;;4695503;30;20112;-80
2022/08/21 04:39:00;;;;;;;2.30;0.95;;;15.50;80.60;;;;;;4714154;30;20061;-79
2022/08/21 04:41:29;;;;;;;2.92;1.10;;;15.40;81.30;;;;;;4691540;30;20059;-79
2022/08/21 04:43:57;;;;;;;3.55;1.20;;;15.50;80.70;;;;;;4700049;30;20464;-79
2022/08/21 04:46:24;;;;;;;2.05;1.02;;;15.40;80.80;;;;;;4713844;30;20060;-80
2022/08/21 04:48:51;;;;;;;2.95;1.23;;;15.40;80.80;;;;;;4704855;30;20136;-80
2022/08/21 04:51:30;;;;;;;2.42;1.10;;;15.40;80.80;;;;;;4685804;30;20046;-79
2022/08/21 04:54:01;;;;;;;3.30;1.00;;;15.50;80.80;;;;;;4697240;30;20058;-79
2022/08/21 04:56:35;;;;;;;3.17;1.02;;;15.40;80.80;;;;;;4686004;30;20054;-79
2022/08/21 04:59:06;;;;;;;3.33;1.10;;;15.40;80.90;;;;;;4699997;30;20080;-79
2022/08/21 05:01:37;;;;;;;2.53;0.90;;;15.40;80.90;;;;;;4699672;30;20057;-79
2022/08/21 05:04:08;;;;;;;2.42;0.95;;;15.40;80.90;;;;;;4699555;30;20827;-79
2022/08/21 05:06:37;;;;;;;3.28;1.15;;;15.40;80.80;;;;;;4685512;30;20115;-79
2022/08/21 05:09:04;;;;;;;4.10;1.45;;;15.40;80.90;;;;;;4701322;30;20140;-79
2022/08/21 05:11:32;;;;;;;2.88;1.30;;;15.50;80.90;;;;;;4689157;30;20140;-79
2022/08/21 05:13:59;;;;;;;4.53;1.27;;;15.40;80.90;;;;;;4714277;30;20093;-80
2022/08/21 05:16:26;;;;;;;1.90;1.00;;;15.50;80.90;;;;;;4699777;30;20064;-79
2022/08/21 05:19:05;;;;;;;2.13;0.90;;;15.50;80.90;;;;;;4707661;30;20389;-80
2022/08/21 05:21:34;;;;;;;2.20;1.17;;;15.50;80.90;;;;;;4699629;30;20049;-80
2022/08/21 05:24:01;;;;;;;2.95;1.48;;;15.50;80.80;;;;;;4692798;30;20061;-79
2022/08/21 05:26:29;;;;;;;3.08;1.05;;;15.50;80.80;;;;;;4699581;30;20573;-79
2022/08/21 05:28:57;;;;;;;2.13;0.90;;;15.60;80.80;;;;;;4699242;30;20050;-79
2022/08/21 05:31:24;;;;;;;2.85;0.90;;;15.60;80.70;;;;;;4699312;30;20427;-79
2022/08/21 05:33:51;;;;;;;2.65;1.05;;;15.70;80.70;;;;;;4702246;30;20061;-80
2022/08/21 05:36:22;;;;;;;4.00;1.27;;;15.70;80.70;;;;;;4702579;30;20088;-79
2022/08/21 05:38:49;;;;;;;4.18;1.10;;;15.80;80.60;;;;;;4716772;30;20531;-79
2022/08/21 05:41:16;;;;;;;3.95;1.10;;;15.80;80.50;;;;;;4709385;30;20057;-79
2022/08/21 05:43:43;;;;;;;3.40;1.27;;;15.80;80.40;;;;;;4708395;30;20357;-83
2022/08/21 05:46:11;;;;;;;3.30;1.48;;;15.90;80.40;;;;;;4688972;30;20568;-83
2022/08/21 05:48:38;;;;;;;2.85;1.25;;;16.00;80.50;;;;;;4707101;30;20045;-83
2022/08/21 05:51:11;;;;;;;2.78;1.17;;;16.00;80.40;;;;;;4684972;30;20049;-83
2022/08/21 05:53:41;;;;;;;2.50;1.25;;;16.10;80.40;;;;;;4716301;30;20072;-83
2022/08/21 05:56:10;;;;;;;4.28;1.70;;;16.20;80.40;;;;;;4680408;30;20131;-82
2022/08/21 05:58:37;;;;;;;3.45;2.03;;;16.30;80.30;;;;;;4710696;30;20080;-83
2022/08/21 06:01:05;;;;;;;5.97;2.53;;;16.30;80.10;;;;;;4687648;30;20053;-83
2022/08/21 06:03:36;;;;;;;4.80;2.63;;;16.40;80.10;;;;;;4717289;30;20072;-83
2022/08/21 06:06:04;;;;;;;5.60;3.10;;;16.50;79.90;;;;;;4711275;30;20055;-83
2022/08/21 06:08:31;;;;;;;4.75;2.38;;;16.60;79.70;;;;;;4724328;30;20119;-84
2022/08/21 06:11:00;;;;;;;4.88;2.83;;;16.70;79.50;;;;;;4716001;30;20061;-82
2022/08/21 06:13:28;;;;;;;4.78;2.60;;;16.80;79.40;;;;;;4718121;30;20116;-81
2022/08/21 06:16:14;;;;;;;5.53;3.38;;;16.90;79.30;;;;;;4701263;30;20037;-82
2022/08/21 06:18:43;;;;;;;5.30;3.35;;;17.00;79.20;;;;;;4719220;30;20063;-84
2022/08/21 06:21:13;;;;;;;5.63;2.92;;;17.10;79.20;;;;;;4715132;30;20507;-86
2022/08/21 06:23:41;;;;;;;7.22;3.53;;;17.20;79.00;;;;;;4715350;30;20156;-87
2022/08/21 06:26:09;;;;;;;6.32;3.63;;;17.20;78.90;;;;;;4691295;30;20588;-87
2022/08/21 06:28:36;;;;;;;4.43;3.20;;;17.30;78.80;;;;;;4721522;30;20052;-86
2022/08/21 06:31:19;;;;;;;5.97;2.63;;;17.40;78.70;;;;;;4687389;30;20422;-87
2022/08/21 06:33:47;;;;;;;6.10;2.83;;;17.50;78.60;;;;;;4697514;30;20053;-86
2022/08/21 06:36:14;;;;;;;4.30;2.40;;;17.60;78.60;;;;;;4701995;30;20509;-87
2022/08/21 06:38:42;;;;;;;6.00;3.78;;;17.70;78.50;;;;;;4702192;30;20103;-85
2022/08/21 06:41:19;;;;;;;6.05;3.28;;;17.70;78.50;;;;;;4702237;30;20061;-82
2022/08/21 06:43:53;;;;;;;6.28;3.25;;;17.70;78.40;;;;;;4702407;30;20817;-87
2022/08/21 06:46:21;;;;;;;7.38;3.80;;;17.70;78.50;;;;;;4727476;30;20060;-86
2022/08/21 06:48:49;;;;;;;6.90;3.80;;;17.80;78.60;;;;;;4722382;30;20913;-87
2022/08/21 06:51:18;;;;;;;9.00;4.38;;;17.80;78.60;;;;;;4707471;30;20045;-88
2022/08/21 06:53:46;;;;;;;8.68;3.85;;;17.80;78.70;;;;;;4716056;30;20053;-87
2022/08/21 06:56:15;;;;;;;4.32;3.15;;;17.80;78.60;;;;;;4687579;30;20103;-84
2022/08/21 06:58:42;;;;;;;4.45;3.10;;;17.90;78.60;;;;;;4709810;30;20595;-84
2022/08/21 07:01:11;;;;;;;6.03;3.08;;;18.00;78.50;;;;;;4701046;30;20107;-84
2022/08/21 07:04:09;;;;;;;7.70;3.10;;;18.10;78.40;;;;;;4689545;30;20173;-88
2022/08/21 07:06:36;;;;;;;6.70;3.00;;;18.20;78.20;;;;;;4701845;30;20056;-89
2022/08/21 07:09:04;;;;;;;5.95;2.53;;;18.20;78.20;;;;;;4716268;30;20056;-89
2022/08/21 07:11:31;;;;;;;6.80;3.25;;;18.30;78.10;;;;;;4702064;30;20065;-90
2022/08/21 07:14:08;;;;;;;8.05;3.92;;;18.40;77.90;;;;;;4703236;30;20053;-88
2022/08/21 07:16:45;;;;;;;6.20;3.65;;;18.50;77.90;;;;;;4720236;30;20056;-88
2022/08/21 07:19:14;;;;;;;8.90;3.80;;;18.50;77.90;;;;;;4703698;30;20057;-83
2022/08/21 07:21:41;;;;;;;6.47;3.08;;;18.50;77.90;;;;;;4699572;30;20377;-87
2022/08/21 07:24:08;;;;;;;5.10;3.17;;;18.50;77.80;;;;;;4686950;30;20110;-84
2022/08/21 07:26:36;;;;;;;6.03;3.72;;;18.60;77.80;;;;;;4714808;30;20045;-85
2022/08/21 07:29:07;;;;;;;6.25;3.00;;;18.70;77.70;;;;;;4715015;30;20052;-83
2022/08/21 07:31:34;;;;;;;7.60;3.17;;;18.70;77.60;;;;;;4714960;30;20447;-84
2022/08/21 07:34:04;;;;;;;4.82;2.70;;;18.80;77.60;;;;;;4700463;30;20057;-84
2022/08/21 07:36:31;;;;;;;7.40;2.38;;;18.90;77.40;;;;;;4718198;30;20045;-83
2022/08/21 07:39:01;;;;;;;4.07;1.98;;;19.00;77.20;;;;;;4701258;30;20049;-85
2022/08/21 07:41:32;;;;;;;9.18;3.08;;;19.20;77.10;;;;;;4686488;30;20095;-85
2022/08/21 07:44:14;;;;;;;4.93;2.75;;;19.30;76.90;;;;;;4704354;30;20049;-84
2022/08/21 07:46:56;;;;;;;5.60;2.53;;;19.40;76.80;;;;;;4712558;30;20154;-84
2022/08/21 07:49:24;;;;;;;9.95;2.95;;;19.40;76.70;;;;;;4714636;30;20156;-85
2022/08/21 07:51:51;;;;;;;6.95;3.20;;;19.50;76.60;;;;;;4704636;30;20045;-86
2022/08/21 07:54:18;;;;;;;9.02;3.15;;;19.50;76.50;;;;;;4714790;30;20049;-84
2022/08/21 07:57:00;;;;;;;6.38;2.50;;;19.60;76.40;;;;;;4695313;30;20131;-84
2022/08/21 07:59:27;;;;;;;3.80;2.10;;;19.80;76.30;;;;;;4701792;30;20057;-85
2022/08/21 08:01:56;;;;;;;5.97;2.78;;;19.90;76.20;;;;;;4714470;30;20518;-84
2022/08/21 08:04:23;;;;;;;5.03;2.40;;;19.90;75.90;;;;;;4685994;30;20115;-84
2022/08/21 08:06:53;;;;;;;3.97;2.33;;;19.90;75.90;;;;;;4700202;30;20574;-84
2022/08/21 08:09:21;;;;;;;4.30;1.98;;;19.90;76.10;;;;;;4702592;30;20053;-85
2022/08/21 08:12:09;;;;;;;6.47;2.20;;;19.90;76.20;;;;;;4714717;30;20049;-85
2022/08/21 08:15:32;;;;;;;6.00;1.98;;;19.80;76.40;;;;;;4651296;30;20054;-85
2022/08/21 08:18:33;;;;;;;5.93;2.78;;;19.90;76.50;;;;;;4613060;30;20071;-85
2022/08/21 08:21:05;;;;;;;6.70;2.80;;;20.00;77.10;;;;;;4644955;30;20494;-82
2022/08/21 08:23:34;;;;;;;9.05;3.45;;;20.10;76.30;;;;;;4643764;30;20529;-84
2022/08/21 08:26:05;;;;;;;12.10;2.97;;;20.20;76.30;;;;;;4627142;30;20055;-83
2022/08/21 08:28:46;;;;;;;6.30;2.28;;;20.20;76.30;;;;;;4644876;30;20145;-84
2022/08/21 08:31:15;;;;;;;5.70;2.13;;;20.30;76.30;;;;;;4636626;30;20051;-83
2022/08/21 08:33:42;;;;;;;5.80;2.45;;;20.40;76.00;;;;;;4644290;30;20054;-86
2022/08/21 08:36:15;;;;;;;7.07;1.92;;;20.60;76.50;;;;;;4646355;30;20051;-82
2022/08/21 08:38:42;;;;;;;5.78;2.00;;;20.70;75.70;;;;;;4650984;30;20069;-82
2022/08/21 08:41:22;;;;;;;4.75;1.50;;;20.90;75.40;;;;;;4628758;30;20078;-82
2022/08/21 08:44:03;;;;;;;8.35;2.35;;;21.10;75.10;;;;;;4637447;30;20054;-82
2022/08/21 08:46:47;;;;;;;4.57;1.58;;;21.20;74.60;;;;;;4636873;30;20062;-86
2022/08/21 08:49:27;;;;;;;4.00;1.80;;;21.30;74.40;;;;;;4664594;30;20503;-86
2022/08/21 08:52:02;;;;;;;5.50;2.17;;;21.40;74.20;;;;;;4670148;30;20046;-84
2022/08/21 08:54:35;;;;;;;5.32;1.70;;;21.50;74.10;;;;;;4715216;30;20053;-84
2022/08/21 08:57:06;;;;;;;2.38;0.98;;;21.60;73.90;;;;;;4702768;30;20068;-84
2022/08/21 09:00:04;;;;;;;4.32;1.20;;;21.80;73.80;;;;;;4703030;30;20115;-82
2022/08/21 09:02:34;;;;;;;3.17;1.10;;;21.90;73.40;;;;;;4703159;30;20053;-84
2022/08/21 09:05:01;;;;;;;6.03;1.80;;;22.00;73.30;;;;;;4702976;30;20056;-84
2022/08/21 09:07:40;;;;;;;4.45;1.42;;;22.10;72.70;;;;;;4718824;30;20049;-85
2022/08/21 09:10:20;;;;;;;4.85;1.33;;;22.10;72.30;;;;;;4702903;30;20111;-84
2022/08/21 09:13:06;;;;;;;4.50;1.90;;;22.20;72.00;;;;;;4704898;30;20060;-84
2022/08/21 09:16:03;;;;;;;8.70;2.15;;;22.30;71.50;;;;;;4717125;30;20136;-84
2022/08/21 09:18:48;;;;;;;5.15;1.80;;;22.20;70.90;;;;;;4714213;30;20133;-84
2022/08/21 09:21:32;;;;;;;1.90;0.70;;;22.30;71.10;;;;;;4711447;30;20063;-84
2022/08/21 09:24:20;;;;;;;8.13;1.88;;;22.50;70.90;;;;;;4711220;30;20059;-83
2022/08/21 09:27:02;;;;;;;2.88;1.30;;;22.60;70.00;;;;;;4720505;30;20049;-84
2022/08/21 09:29:33;;;;;;;4.93;1.20;;;22.60;69.40;;;;;;4728822;30;20136;-86
2022/08/21 09:32:06;;;;;;;4.93;1.35;;;22.50;69.30;;;;;;4702110;30;20072;-84
2022/08/21 09:34:34;;;;;;;3.83;1.30;;;22.50;69.60;;;;;;4702178;30;20089;-84
2022/08/21 09:37:01;;;;;;;2.78;0.63;;;22.50;69.50;;;;;;4702286;30;20511;-84
2022/08/21 09:39:37;;;;;;;3.17;0.77;;;22.60;69.30;;;;;;4702139;30;20143;-84
2022/08/21 09:42:10;;;;;;;3.63;0.95;;;22.80;68.50;;;;;;4726140;30;20056;-86
2022/08/21 09:44:42;;;;;;;4.55;1.05;;;22.70;68.20;;;;;;4706232;30;20111;-82
2022/08/21 09:47:14;;;;;;;3.28;1.02;;;22.60;68.20;;;;;;4710357;30;20053;-81
2022/08/21 09:49:42;;;;;;;4.85;1.10;;;22.60;67.80;;;;;;4715152;30;20500;-85
2022/08/21 09:52:22;;;;;;;2.70;0.68;;;22.70;67.80;;;;;;4702040;30;20462;-85
2022/08/21 09:54:54;;;;;;;2.92;1.10;;;22.80;67.50;;;;;;4719077;30;20107;-85
2022/08/21 09:57:41;;;;;;;4.13;0.90;;;22.80;67.30;;;;;;4729947;30;20085;-85
2022/08/21 10:00:29;;;;;;;2.10;0.68;;;23.00;67.00;;;;;;4713115;30;20148;-85
2022/08/21 10:03:21;;;;;;;3.65;0.65;;;23.30;66.80;;;;;;4718900;30;20527;-84
2022/08/21 10:06:05;;;;;;;3.78;0.80;;;23.50;66.50;;;;;;4718084;30;20057;-86
2022/08/21 10:08:37;;;;;;;1.63;0.60;;;23.70;65.80;;;;;;4709531;30;20084;-84
2022/08/21 10:11:11;;;;;;;4.28;0.82;;;23.80;64.80;;;;;;4716249;30;20037;-85
2022/08/21 10:14:06;;;;;;;3.50;0.50;;;23.90;64.00;;;;;;4715974;30;20507;-85
2022/08/21 10:17:11;;;;;;;3.50;0.75;;;24.00;63.70;;;;;;4713273;30;20053;-83
2022/08/21 10:19:54;;;;;;;1.98;0.50;;;23.90;63.10;;;;;;4705713;30;20233;-86
2022/08/21 10:22:41;;;;;;;1.67;0.55;;;23.80;63.30;;;;;;4711848;30;20053;-85
2022/08/21 10:25:22;;;;;;;2.40;0.40;;;23.90;63.30;;;;;;4699691;30;20143;-85
2022/08/21 10:28:00;;;;;;;1.15;0.30;;;24.10;62.90;;;;;;4714266;30;20088;-85
2022/08/21 10:30:49;;;;;;;1.35;0.38;;;24.50;62.40;;;;;;4717687;30;20080;-86
2022/08/21 10:33:28;;;;;;;2.85;0.30;;;25.00;61.70;;;;;;4711053;30;20070;-82
2022/08/21 10:36:26;;;;;;;3.38;0.50;;;25.40;60.90;;;;;;4704347;30;20543;-86
2022/08/21 10:39:27;;;;;;;3.35;0.57;;;25.40;60.00;;;;;;4718978;30;20057;-86
2022/08/21 10:42:09;;;;;;;2.75;0.60;;;25.00;59.80;;;;;;4713387;30;20072;-85
2022/08/21 10:44:48;;;;;;;0.82;0.40;;;24.90;60.40;;;;;;4732105;30;20240;-89
2022/08/21 10:47:44;;;;;;;1.08;0.38;;;24.90;60.40;;;;;;4719702;30;20626;-90
2022/08/21 10:50:24;;;;;;;1.27;0.35;;;24.60;60.60;;;;;;4716835;30;20392;-90
2022/08/21 10:53:01;;;;;;;3.83;0.40;;;24.60;61.10;;;;;;4702984;30;20159;-90
2022/08/21 10:55:47;;;;;;;3.10;0.65;;;24.80;60.00;;;;;;4711448;30;20045;-88
2022/08/21 10:58:25;;;;;;;2.55;0.40;;;25.10;59.50;;;;;;4712798;30;20428;-90
2022/08/21 11:01:07;;;;;;;2.25;0.40;;;25.40;58.90;;;;;;4713369;30;20139;-88
2022/08/21 11:03:50;;;;;;;2.55;0.43;;;25.90;58.20;;;;;;4714053;30;20048;-88
2022/08/21 11:06:24;;;;;;;2.75;0.50;;;26.10;57.40;;;;;;4721584;30;20095;-88
2022/08/21 11:09:00;;;;;;;1.88;0.40;;;25.80;57.40;;;;;;4705806;30;20071;-88
2022/08/21 11:11:41;;;;;;;2.50;0.40;;;25.50;57.60;;;;;;4719128;30;20095;-89
2022/08/21 11:14:52;;;;;;;2.85;0.57;;;25.40;57.60;;;;;;4701453;30;20060;-88
2022/08/21 11:17:29;;;;;;;1.60;0.30;;;25.20;57.50;;;;;;4694989;30;20056;-90
2022/08/21 11:20:12;;;;;;;1.73;0.40;;;25.00;58.00;;;;;;4714838;30;20053;-87
2022/08/21 11:23:19;;;;;;;2.38;0.50;;;25.00;58.30;;;;;;4721889;30;20143;-89
2022/08/21 11:26:04;;;;;;;3.22;0.40;;;25.00;57.90;;;;;;4714696;30;20052;-88
2022/08/21 11:28:56;;;;;;;1.35;0.38;;;25.10;57.70;;;;;;4722659;30;20435;-79
2022/08/21 11:31:47;;;;;;;1.88;0.30;;;26.00;56.70;;;;;;4738484;30;20098;-79
2022/08/21 11:34:35;;;;;;;2.87;0.50;;;26.20;55.50;;;;;;4713097;30;20587;-82
2022/08/21 11:37:16;;;;;;;1.58;0.30;;;26.40;54.50;;;;;;4703914;30;20353;-82
2022/08/21 11:39:45;;;;;;;2.17;0.50;;;26.50;53.90;;;;;;4717947;30;20110;-79
2022/08/21 11:42:53;;;;;;;1.25;0.40;;;26.00;54.20;;;;;;4717877;30;20139;-80
2022/08/21 11:45:36;;;;;;;2.63;0.60;;;26.00;54.70;;;;;;4714244;30;20067;-80
2022/08/21 11:48:18;;;;;;;0.77;0.22;;;25.70;54.70;;;;;;4709476;30;20442;-79
2022/08/21 11:50:48;;;;;;;2.75;0.43;;;26.20;54.70;;;;;;4730740;30;20057;-80
2022/08/21 11:53:29;;;;;;;6.45;0.55;;;26.80;53.50;;;;;;4717869;30;20053;-79
2022/08/21 11:56:12;;;;;;;1.77;0.30;;;27.30;52.40;;;;;;4726549;30;20475;-79
2022/08/21 11:58:43;;;;;;;0.80;0.10;;;27.90;52.20;;;;;;4714215;30;20052;-79
2022/08/21 12:01:30;;;;;;;1.05;0.38;;;28.50;51.80;;;;;;4724371;30;20046;-80
2022/08/21 12:04:29;;;;;;;2.10;0.25;;;29.00;51.00;;;;;;4728609;30;20057;-80
2022/08/21 12:07:09;;;;;;;1.67;0.30;;;29.10;50.50;;;;;;4736806;30;20072;-81
2022/08/21 12:09:37;;;;;;;1.50;0.20;;;29.30;50.40;;;;;;4717056;30;20052;-81
2022/08/21 12:12:26;;;;;;;1.40;0.30;;;29.40;50.00;;;;;;4698866;30;20048;-81
2022/08/21 12:15:21;;;;;;;1.85;0.30;;;28.80;50.40;;;;;;4711480;30;20509;-77
2022/08/21 12:18:28;;;;;;;1.25;0.30;;;27.90;51.60;;;;;;4728352;30;20052;-77
2022/08/21 12:21:20;;;;;;;1.52;0.30;;;27.30;52.80;;;;;;4733039;30;20461;-76
2022/08/21 12:23:58;;;;;;;2.20;0.40;;;26.90;52.80;;;;;;4700581;30;20103;-75
2022/08/21 12:26:30;;;;;;;2.60;0.40;;;26.70;52.40;;;;;;4729572;30;20049;-76
2022/08/21 12:29:27;;;;;;;1.08;0.20;;;26.50;52.50;;;;;;4714974;30;20067;-76
2022/08/21 12:32:00;;;;;;;0.90;0.20;;;26.30;52.80;;;;;;4739821;30;20056;-76
2022/08/21 12:34:35;;;;;;;0.57;0.20;;;26.20;53.00;;;;;;4736356;30;20077;-76
2022/08/21 12:37:39;;;;;;;5.43;0.73;;;26.20;53.10;;;;;;4719342;30;20075;-80
2022/08/21 12:40:11;;;;;;;3.90;0.55;;;26.20;52.60;;;;;;4706795;30;20147;-78
2022/08/21 12:42:44;;;;;;;1.05;0.30;;;26.20;52.40;;;;;;4738610;30;20052;-79
2022/08/21 12:45:32;;;;;;;1.10;0.20;;;26.20;52.60;;;;;;4728424;30;20056;-78
2022/08/21 12:48:01;;;;;;;1.30;0.30;;;26.30;52.60;;;;;;4705599;30;20056;-78
2022/08/21 12:50:52;;;;;;;0.82;0.32;;;26.40;52.40;;;;;;4719529;30;20055;-79
2022/08/21 12:53:19;;;;;;;1.75;0.47;;;26.60;52.40;;;;;;4719672;30;20048;-78
2022/08/21 12:55:50;;;;;;;2.85;0.47;;;26.60;51.80;;;;;;4713942;30;20468;-77
2022/08/21 12:58:19;;;;;;;2.15;0.30;;;26.60;51.90;;;;;;4710252;30;20122;-77
2022/08/21 13:01:02;;;;;;;1.73;0.32;;;26.50;51.70;;;;;;4720028;30;20594;-76
2022/08/21 13:03:31;;;;;;;0.77;0.28;;;26.40;51.30;;;;;;4730833;30;20486;-76
2022/08/21 13:05:59;;;;;;;0.88;0.20;;;26.40;51.70;;;;;;4706914;30;20148;-77
2022/08/21 13:08:27;;;;;;;1.35;0.20;;;26.40;51.90;;;;;;4733600;30;20040;-77
2022/08/21 13:11:01;;;;;;;0.68;0.28;;;26.40;51.50;;;;;;4735788;30;20157;-77
2022/08/21 13:13:42;;;;;;;0.75;0.10;;;26.40;51.30;;;;;;4716785;30;20059;-78
2022/08/21 13:16:26;;;;;;;1.85;0.32;;;26.40;51.50;;;;;;4718606;30;20045;-77
2022/08/21 13:18:59;;;;;;;1.75;0.32;;;26.50;51.60;;;;;;4740156;30;20447;-76
2022/08/21 13:21:31;;;;;;;2.92;0.60;;;26.40;51.30;;;;;;4728805;30;20436;-75